createdAt,value
2018-05-10T00:00:15.523Z,11.70
2018-05-10T00:01:15.518Z,20.30
2018-05-10T00:02:15.513Z,15.30
2018-05-10T00:03:15.507Z,21.80
2018-05-10T00:04:15.502Z,13.90
2018-05-10T00:05:15.498Z,14.90
2018-05-10T00:06:15.493Z,14.20
2018-05-10T00:07:15.493Z,14.50
2018-05-10T00:08:15.487Z,14.90
2018-05-10T00:09:15.478Z,12.70
2018-05-10T00:10:15.474Z,15.80
2018-05-10T00:11:15.468Z,15.40
2018-05-10T00:12:15.463Z,15.90
2018-05-10T00:13:15.458Z,16.50
2018-05-10T00:14:15.454Z,15.70
2018-05-10T00:15:15.450Z,17.20
2018-05-10T00:16:15.443Z,16.60
2018-05-10T00:17:15.438Z,16.60
2018-05-10T00:18:15.433Z,15.50
2018-05-10T00:19:15.428Z,12.30
2018-05-10T00:20:15.423Z,15.10
2018-05-10T00:21:15.420Z,15.20
2018-05-10T00:22:15.414Z,12.80
2018-05-10T00:23:15.408Z,17.00
2018-05-10T00:24:15.497Z,17.20
2018-05-10T00:25:15.399Z,16.40
2018-05-10T00:26:15.394Z,18.80
2018-05-10T00:27:15.391Z,16.60
2018-05-10T00:28:15.383Z,15.80
2018-05-10T00:29:15.379Z,15.40
2018-05-10T00:30:15.373Z,18.70
2018-05-10T00:31:15.368Z,14.40
2018-05-10T00:32:15.363Z,17.40
2018-05-10T00:33:15.358Z,15.10
2018-05-10T00:34:15.355Z,15.40
2018-05-10T00:35:15.347Z,15.90
2018-05-10T00:36:15.342Z,16.60
2018-05-10T00:37:15.342Z,12.00
2018-05-10T00:38:15.334Z,18.30
2018-05-10T00:39:15.327Z,13.30
2018-05-10T00:40:15.322Z,12.70
2018-05-10T00:41:15.317Z,13.00
2018-05-10T00:42:15.313Z,14.20
2018-05-10T00:43:15.306Z,13.70
2018-05-10T00:44:15.301Z,14.40
2018-05-10T00:45:15.295Z,13.10
2018-05-10T00:46:15.290Z,15.00
2018-05-10T00:47:15.284Z,13.00
2018-05-10T00:48:15.279Z,14.70
2018-05-10T00:49:15.276Z,12.50
2018-05-10T00:50:15.269Z,14.50
2018-05-10T00:51:15.263Z,13.30
2018-05-10T00:52:15.258Z,13.90
2018-05-10T00:53:15.252Z,12.40
2018-05-10T00:54:15.247Z,13.00
2018-05-10T00:55:15.241Z,18.60
2018-05-10T00:56:15.236Z,15.90
2018-05-10T00:57:15.231Z,15.30
2018-05-10T00:58:15.226Z,15.10
2018-05-10T00:59:15.219Z,12.50
2018-05-10T01:00:15.213Z,14.10
2018-05-10T01:01:15.208Z,17.00
2018-05-10T01:02:15.203Z,12.30
2018-05-10T01:03:15.197Z,15.10
2018-05-10T01:04:15.195Z,14.40
2018-05-10T01:05:15.186Z,14.60
2018-05-10T01:06:15.185Z,12.90
2018-05-10T01:07:15.174Z,13.70
2018-05-10T01:08:15.169Z,16.40
2018-05-10T01:09:15.165Z,15.70
2018-05-10T01:10:15.159Z,10.30
2018-05-10T01:11:15.153Z,13.60
2018-05-10T01:12:15.149Z,9.50
2018-05-10T01:13:15.141Z,8.80
2018-05-10T01:14:15.136Z,11.40
2018-05-10T01:15:15.130Z,9.50
2018-05-10T01:16:15.124Z,8.60
2018-05-10T01:17:15.118Z,12.40
2018-05-10T01:18:15.119Z,10.30
2018-05-10T01:19:15.107Z,10.60
2018-05-10T01:20:15.101Z,11.40
2018-05-10T01:21:15.096Z,9.50
2018-05-10T01:22:15.091Z,8.40
2018-05-10T01:23:15.084Z,10.70
2018-05-10T01:24:15.078Z,10.10
2018-05-10T01:25:15.073Z,10.30
2018-05-10T01:26:15.067Z,8.90
2018-05-10T01:27:15.061Z,10.80
2018-05-10T01:28:15.065Z,10.40
2018-05-10T01:29:15.050Z,10.60
2018-05-10T01:30:15.045Z,8.80
2018-05-10T01:31:15.041Z,9.70
2018-05-10T01:32:15.033Z,10.40
2018-05-10T01:33:15.029Z,9.10
2018-05-10T01:34:15.022Z,9.60
2018-05-10T01:35:15.015Z,11.10
2018-05-10T01:36:15.010Z,9.30
2018-05-10T01:37:15.004Z,10.10
2018-05-10T01:38:14.998Z,9.30
2018-05-10T01:39:14.992Z,10.30
2018-05-10T01:40:14.986Z,11.80
2018-05-10T01:41:14.980Z,13.20
2018-05-10T01:42:14.975Z,10.40
2018-05-10T01:43:14.968Z,9.40
2018-05-10T01:44:14.962Z,11.80
2018-05-10T01:45:14.956Z,13.10
2018-05-10T01:46:14.952Z,11.80
2018-05-10T01:47:14.944Z,9.20
2018-05-10T01:48:14.937Z,9.90
2018-05-10T01:49:14.931Z,8.60
2018-05-10T01:50:14.926Z,12.20
2018-05-10T01:51:14.918Z,10.20
2018-05-10T01:52:14.912Z,10.70
2018-05-10T01:53:14.906Z,12.80
2018-05-10T01:54:14.902Z,12.30
2018-05-10T01:55:14.893Z,9.30
2018-05-10T01:56:14.887Z,10.80
2018-05-10T01:57:14.880Z,9.00
2018-05-10T01:58:14.874Z,9.20
2018-05-10T01:59:14.867Z,9.20
2018-05-10T02:00:14.860Z,10.00
2018-05-10T02:01:14.854Z,11.10
2018-05-10T02:02:14.848Z,15.30
2018-05-10T02:03:14.841Z,13.50
2018-05-10T02:04:14.834Z,12.40
2018-05-10T02:05:14.827Z,10.90
2018-05-10T02:06:14.821Z,13.70
2018-05-10T02:07:14.814Z,11.60
2018-05-10T02:08:14.807Z,12.60
2018-05-10T02:09:14.801Z,18.50
2018-05-10T02:10:14.795Z,14.00
2018-05-10T02:11:14.787Z,13.30
2018-05-10T02:12:14.781Z,13.30
2018-05-10T02:13:14.775Z,12.90
2018-05-10T02:14:14.770Z,11.10
2018-05-10T02:15:14.766Z,12.60
2018-05-10T02:16:14.754Z,14.50
2018-05-10T02:17:14.748Z,15.40
2018-05-10T02:18:14.741Z,15.50
2018-05-10T02:19:14.738Z,12.10
2018-05-10T02:20:14.728Z,9.40
2018-05-10T02:21:14.722Z,8.60
2018-05-10T02:22:14.716Z,14.20
2018-05-10T02:23:14.709Z,8.80
2018-05-10T02:24:14.703Z,13.20
2018-05-10T02:25:14.696Z,9.20
2018-05-10T02:26:14.690Z,10.30
2018-05-10T02:27:14.683Z,11.10
2018-05-10T02:28:14.675Z,8.70
2018-05-10T02:29:14.669Z,11.30
2018-05-10T02:30:14.664Z,7.90
2018-05-10T02:31:14.806Z,11.30
2018-05-10T02:32:14.650Z,8.30
2018-05-10T02:33:14.643Z,10.60
2018-05-10T02:34:14.644Z,10.20
2018-05-10T02:35:14.633Z,11.90
2018-05-10T02:36:14.622Z,8.40
2018-05-10T02:37:14.616Z,13.10
2018-05-10T02:38:14.610Z,11.20
2018-05-10T02:39:14.602Z,9.40
2018-05-10T02:40:14.595Z,12.40
2018-05-10T02:41:14.589Z,16.90
2018-05-10T02:42:14.581Z,10.90
2018-05-10T02:43:14.575Z,9.30
2018-05-10T02:44:14.568Z,15.80
2018-05-10T02:45:14.561Z,15.80
2018-05-10T02:46:14.561Z,10.80
2018-05-10T02:47:14.547Z,12.80
2018-05-10T02:48:14.542Z,9.70
2018-05-10T02:49:14.535Z,11.10
2018-05-10T02:50:14.529Z,10.10
2018-05-10T02:51:14.619Z,12.10
2018-05-10T02:52:14.514Z,9.90
2018-05-10T02:53:14.506Z,9.40
2018-05-10T02:54:14.500Z,12.70
2018-05-10T02:55:14.492Z,10.90
2018-05-10T02:56:14.486Z,14.00
2018-05-10T02:57:14.487Z,11.60
2018-05-10T02:58:14.472Z,12.60
2018-05-10T02:59:14.464Z,13.00
2018-05-10T03:00:14.457Z,12.80
2018-05-10T03:01:14.451Z,14.70
2018-05-10T03:02:14.445Z,13.80
2018-05-10T03:03:14.437Z,13.20
2018-05-10T03:04:14.431Z,16.70
2018-05-10T03:05:14.423Z,16.30
2018-05-10T03:06:14.417Z,13.40
2018-05-10T03:07:14.410Z,16.20
2018-05-10T03:08:14.405Z,18.60
2018-05-10T03:09:14.398Z,14.20
2018-05-10T03:10:14.389Z,14.40
2018-05-10T03:11:14.381Z,17.40
2018-05-10T03:12:14.376Z,13.20
2018-05-10T03:13:14.369Z,13.80
2018-05-10T03:14:14.363Z,20.50
2018-05-10T03:15:14.354Z,15.80
2018-05-10T03:16:14.348Z,15.00
2018-05-10T03:17:14.342Z,14.80
2018-05-10T03:18:14.335Z,11.90
2018-05-10T03:19:14.328Z,12.60
2018-05-10T03:20:14.321Z,16.70
2018-05-10T03:21:14.315Z,17.40
2018-05-10T03:22:14.308Z,16.50
2018-05-10T03:23:14.300Z,15.30
2018-05-10T03:24:14.294Z,16.10
2018-05-10T03:25:14.288Z,19.00
2018-05-10T03:26:14.281Z,14.20
2018-05-10T03:27:14.274Z,18.40
2018-05-10T03:28:14.267Z,16.20
2018-05-10T03:29:14.263Z,19.20
2018-05-10T03:30:14.268Z,19.90
2018-05-10T03:31:14.247Z,18.50
2018-05-10T03:32:14.241Z,17.10
2018-05-10T03:33:14.244Z,15.10
2018-05-10T03:34:14.227Z,16.10
2018-05-10T03:35:14.221Z,18.90
2018-05-10T03:36:14.213Z,22.00
2018-05-10T03:37:14.208Z,14.50
2018-05-10T03:38:14.203Z,20.00
2018-05-10T03:39:14.195Z,14.70
2018-05-10T03:40:14.187Z,13.00
2018-05-10T03:41:14.181Z,18.40
2018-05-10T03:42:14.175Z,21.60
2018-05-10T03:43:14.166Z,16.50
2018-05-10T03:44:14.160Z,19.60
2018-05-10T03:45:14.153Z,13.90
2018-05-10T03:46:14.147Z,17.60
2018-05-10T03:47:14.140Z,14.50
2018-05-10T03:48:14.133Z,15.70
2018-05-10T03:49:14.127Z,20.40
2018-05-10T03:50:14.120Z,16.30
2018-05-10T03:51:14.117Z,15.40
2018-05-10T03:52:14.106Z,17.00
2018-05-10T03:53:14.103Z,17.00
2018-05-10T03:54:14.093Z,16.40
2018-05-10T03:55:14.085Z,13.60
2018-05-10T03:56:14.079Z,14.20
2018-05-10T03:57:14.072Z,18.40
2018-05-10T03:58:14.066Z,20.70
2018-05-10T03:59:14.058Z,13.90
2018-05-10T04:00:14.052Z,17.90
2018-05-10T04:01:14.045Z,17.10
2018-05-10T04:02:14.039Z,14.10
2018-05-10T04:03:14.031Z,16.70
2018-05-10T04:04:14.025Z,16.90
2018-05-10T04:05:14.018Z,14.00
2018-05-10T04:06:14.012Z,22.00
2018-05-10T04:07:14.004Z,13.70
2018-05-10T04:08:14.000Z,12.40
2018-05-10T04:09:13.991Z,18.10
2018-05-10T04:10:13.984Z,13.40
2018-05-10T04:11:13.977Z,16.00
2018-05-10T04:12:13.970Z,13.70
2018-05-10T04:13:13.964Z,18.20
2018-05-10T04:14:13.958Z,14.90
2018-05-10T04:15:13.953Z,14.90
2018-05-10T04:16:13.948Z,13.80
2018-05-10T04:17:13.942Z,13.80
2018-05-10T04:18:13.931Z,14.20
2018-05-10T04:19:13.929Z,16.90
2018-05-10T04:20:13.917Z,13.60
2018-05-10T04:21:13.913Z,18.20
2018-05-10T04:22:13.910Z,12.90
2018-05-10T04:23:13.901Z,14.50
2018-05-10T04:24:13.891Z,18.30
2018-05-10T04:25:13.885Z,14.90
2018-05-10T04:26:13.887Z,21.90
2018-05-10T04:27:13.871Z,14.60
2018-05-10T04:28:13.865Z,23.90
2018-05-10T04:29:13.858Z,17.50
2018-05-10T04:30:13.852Z,13.60
2018-05-10T04:31:13.844Z,19.80
2018-05-10T04:32:13.838Z,22.80
2018-05-10T04:33:13.833Z,22.00
2018-05-10T04:34:13.825Z,16.50
2018-05-10T04:35:13.820Z,13.30
2018-05-10T04:36:13.811Z,14.90
2018-05-10T04:37:13.804Z,15.10
2018-05-10T04:38:13.798Z,15.70
2018-05-10T04:39:13.791Z,14.00
2018-05-10T04:40:13.784Z,18.80
2018-05-10T04:41:13.777Z,19.10
2018-05-10T04:42:13.855Z,18.20
2018-05-10T04:43:13.764Z,15.70
2018-05-10T04:44:13.758Z,18.90
2018-05-10T04:45:13.751Z,18.70
2018-05-10T04:46:13.744Z,15.70
2018-05-10T04:47:13.739Z,14.50
2018-05-10T04:48:13.730Z,16.60
2018-05-10T04:49:13.724Z,14.90
2018-05-10T04:50:13.722Z,15.50
2018-05-10T04:51:13.710Z,14.60
2018-05-10T04:52:13.703Z,14.90
2018-05-10T04:53:13.699Z,14.10
2018-05-10T04:54:13.695Z,14.10
2018-05-10T04:55:13.684Z,11.80
2018-05-10T04:56:13.747Z,11.50
2018-05-10T04:57:13.670Z,13.90
2018-05-10T04:58:13.663Z,11.70
2018-05-10T04:59:13.656Z,12.30
2018-05-10T05:00:13.650Z,16.80
2018-05-10T05:01:13.644Z,15.10
2018-05-10T05:02:13.636Z,12.70
2018-05-10T05:03:13.629Z,15.40
2018-05-10T05:04:13.624Z,12.90
2018-05-10T05:05:13.616Z,11.80
2018-05-10T05:06:13.610Z,9.10
2018-05-10T05:07:13.603Z,15.50
2018-05-10T05:08:13.609Z,11.30
2018-05-10T05:09:13.590Z,14.00
2018-05-10T05:10:13.583Z,10.60
2018-05-10T05:11:13.576Z,11.90
2018-05-10T05:12:13.569Z,11.60
2018-05-10T05:13:13.563Z,10.70
2018-05-10T05:14:13.556Z,8.20
2018-05-10T05:15:13.552Z,11.30
2018-05-10T05:16:13.541Z,9.10
2018-05-10T05:17:13.535Z,10.40
2018-05-10T05:18:13.530Z,10.70
2018-05-10T05:19:13.521Z,9.20
2018-05-10T05:20:13.514Z,7.50
2018-05-10T05:21:13.508Z,11.20
2018-05-10T05:22:13.501Z,10.20
2018-05-10T05:23:13.493Z,8.90
2018-05-10T05:24:13.487Z,14.00
2018-05-10T05:25:13.480Z,10.50
2018-05-10T05:26:13.474Z,12.40
2018-05-10T05:27:13.465Z,11.20
2018-05-10T05:28:13.460Z,9.20
2018-05-10T05:29:13.456Z,9.40
2018-05-10T05:30:13.446Z,10.90
2018-05-10T05:31:13.438Z,12.10
2018-05-10T05:32:13.434Z,12.00
2018-05-10T05:33:13.426Z,15.90
2018-05-10T05:34:13.419Z,12.60
2018-05-10T05:35:13.412Z,16.20
2018-05-10T05:36:13.405Z,9.70
2018-05-10T05:37:13.399Z,11.70
2018-05-10T05:38:13.393Z,16.30
2018-05-10T05:39:13.385Z,13.90
2018-05-10T05:40:13.379Z,9.50
2018-05-10T05:41:13.422Z,21.00
2018-05-10T05:42:13.366Z,10.00
2018-05-10T05:43:13.454Z,12.80
2018-05-10T05:44:13.352Z,14.50
2018-05-10T05:45:13.346Z,7.20
2018-05-10T05:46:13.340Z,11.20
2018-05-10T05:47:13.336Z,13.90
2018-05-10T05:48:13.325Z,9.20
2018-05-10T05:49:13.319Z,9.20
2018-05-10T05:50:13.313Z,6.30
2018-05-10T05:51:13.344Z,9.10
2018-05-10T05:52:13.299Z,11.60
2018-05-10T05:53:13.293Z,9.00
2018-05-10T05:54:13.286Z,6.50
2018-05-10T05:55:13.279Z,7.00
2018-05-10T05:56:13.272Z,7.60
2018-05-10T05:57:13.266Z,6.30
2018-05-10T05:58:13.260Z,4.90
2018-05-10T05:59:13.257Z,6.50
2018-05-10T06:00:13.245Z,5.30
2018-05-10T06:01:13.243Z,9.40
2018-05-10T06:02:13.232Z,4.40
2018-05-10T06:03:13.225Z,5.90
2018-05-10T06:04:13.219Z,5.90
2018-05-10T06:05:13.213Z,7.00
2018-05-10T06:06:13.207Z,7.30
2018-05-10T06:07:13.201Z,5.40
2018-05-10T06:08:13.192Z,5.70
2018-05-10T06:09:13.186Z,5.80
2018-05-10T06:10:13.180Z,6.00
2018-05-10T06:11:13.174Z,4.70
2018-05-10T06:12:13.167Z,5.50
2018-05-10T06:13:13.163Z,4.60
2018-05-10T06:14:13.155Z,4.90
2018-05-10T06:15:13.148Z,6.80
2018-05-10T06:16:13.148Z,6.00
2018-05-10T06:17:13.136Z,10.60
2018-05-10T06:18:13.131Z,10.50
2018-05-10T06:19:13.123Z,5.90
2018-05-10T06:20:13.118Z,5.80
2018-05-10T06:21:13.112Z,6.10
2018-05-10T06:22:13.106Z,5.60
2018-05-10T06:23:13.099Z,5.60
2018-05-10T06:24:13.093Z,8.60
2018-05-10T06:25:13.229Z,3.70
2018-05-10T06:26:13.082Z,6.30
2018-05-10T06:27:13.074Z,7.70
2018-05-10T06:28:13.069Z,6.10
2018-05-10T06:29:13.063Z,4.70
2018-05-10T06:30:13.057Z,3.40
2018-05-10T06:31:13.052Z,3.40
2018-05-10T06:32:13.044Z,3.80
2018-05-10T06:33:13.038Z,5.40
2018-05-10T06:34:13.031Z,4.50
2018-05-10T06:35:13.025Z,7.10
2018-05-10T06:36:13.019Z,4.10
2018-05-10T06:37:13.013Z,4.00
2018-05-10T06:38:13.007Z,3.00
2018-05-10T06:39:13.000Z,4.90
2018-05-10T06:40:12.993Z,3.20
2018-05-10T06:41:12.988Z,4.90
2018-05-10T06:42:12.981Z,3.30
2018-05-10T06:43:12.974Z,4.50
2018-05-10T06:44:12.968Z,1.60
2018-05-10T06:45:12.963Z,1.60
2018-05-10T06:46:12.957Z,1.90
2018-05-10T06:47:13.045Z,2.10
2018-05-10T06:48:12.946Z,0.90
2018-05-10T06:49:12.938Z,2.80
2018-05-10T06:50:12.932Z,1.70
2018-05-10T06:51:12.926Z,3.80
2018-05-10T06:52:12.920Z,1.70
2018-05-10T06:53:12.914Z,1.90
2018-05-10T06:54:12.908Z,1.50
2018-05-10T06:55:12.901Z,2.10
2018-05-10T06:56:12.896Z,4.10
2018-05-10T06:57:12.890Z,4.10
2018-05-10T06:58:12.885Z,2.60
2018-05-10T06:59:12.877Z,4.00
2018-05-10T07:00:12.871Z,2.20
2018-05-10T07:01:12.866Z,1.90
2018-05-10T07:02:12.860Z,2.50
2018-05-10T07:03:12.892Z,2.90
2018-05-10T07:04:12.846Z,2.70
2018-05-10T07:05:12.843Z,3.10
2018-05-10T07:06:12.834Z,2.20
2018-05-10T07:07:12.827Z,2.90
2018-05-10T07:08:12.822Z,3.00
2018-05-10T07:09:12.816Z,2.60
2018-05-10T07:10:12.809Z,4.40
2018-05-10T07:11:12.803Z,4.60
2018-05-10T07:12:12.796Z,3.80
2018-05-10T07:13:12.790Z,2.60
2018-05-10T07:14:12.785Z,2.60
2018-05-10T07:15:12.776Z,4.10
2018-05-10T07:16:12.771Z,1.70
2018-05-10T07:17:12.764Z,4.30
2018-05-10T07:18:12.757Z,5.40
2018-05-10T07:19:12.752Z,4.30
2018-05-10T07:20:12.744Z,3.50
2018-05-10T07:21:12.737Z,3.70
2018-05-10T07:22:12.731Z,4.40
2018-05-10T07:23:12.724Z,2.20
2018-05-10T07:24:12.717Z,2.40
2018-05-10T07:25:12.764Z,6.30
2018-05-10T07:26:12.704Z,5.90
2018-05-10T07:27:12.696Z,3.30
2018-05-10T07:28:12.690Z,5.50
2018-05-10T07:29:12.683Z,3.10
2018-05-10T07:30:12.676Z,5.40
2018-05-10T07:31:12.668Z,4.70
2018-05-10T07:32:12.661Z,3.10
2018-05-10T07:33:12.654Z,4.60
2018-05-10T07:34:12.647Z,2.10
2018-05-10T07:35:12.640Z,6.70
2018-05-10T07:36:12.633Z,2.40
2018-05-10T07:37:12.625Z,2.60
2018-05-10T07:38:12.619Z,2.10
2018-05-10T07:39:12.611Z,1.80
2018-05-10T07:40:12.603Z,3.40
2018-05-10T07:41:12.596Z,3.60
2018-05-10T07:42:12.589Z,1.10
2018-05-10T07:43:12.580Z,3.90
2018-05-10T07:44:12.574Z,1.70
2018-05-10T07:45:12.567Z,16.60
2018-05-10T07:46:12.561Z,4.30
2018-05-10T07:47:12.631Z,2.20
2018-05-10T07:48:12.610Z,2.40
2018-05-10T07:49:12.537Z,3.50
2018-05-10T07:50:12.529Z,3.50
2018-05-10T07:51:12.522Z,2.90
2018-05-10T07:52:12.514Z,5.40
2018-05-10T07:53:12.601Z,2.60
2018-05-10T07:54:12.500Z,2.90
2018-05-10T07:55:12.492Z,3.40
2018-05-10T07:56:12.485Z,1.00
2018-05-10T07:57:12.478Z,2.50
2018-05-10T07:58:12.471Z,7.20
2018-05-10T07:59:12.463Z,2.80
2018-05-10T08:00:12.456Z,3.40
2018-05-10T08:01:12.449Z,1.20
2018-05-10T08:02:12.484Z,0.90
2018-05-10T08:03:12.434Z,3.30
2018-05-10T08:04:12.427Z,1.00
2018-05-10T08:05:12.420Z,1.90
2018-05-10T08:06:12.413Z,3.10
2018-05-10T08:07:12.405Z,2.90
2018-05-10T08:08:12.398Z,1.90
2018-05-10T08:09:12.391Z,5.50
2018-05-10T08:10:12.417Z,1.80
2018-05-10T08:11:12.380Z,4.50
2018-05-10T08:12:12.369Z,3.20
2018-05-10T08:13:12.362Z,1.90
2018-05-10T08:14:12.356Z,3.10
2018-05-10T08:15:12.348Z,3.50
2018-05-10T08:16:12.340Z,2.50
2018-05-10T08:17:12.374Z,3.00
2018-05-10T08:18:12.327Z,2.80
2018-05-10T08:19:12.319Z,2.10
2018-05-10T08:20:12.313Z,5.50
2018-05-10T08:21:12.305Z,2.90
2018-05-10T08:22:12.298Z,2.30
2018-05-10T08:23:12.290Z,1.80
2018-05-10T08:24:12.377Z,2.00
2018-05-10T08:25:12.275Z,2.70
2018-05-10T08:26:12.269Z,5.70
2018-05-10T08:27:12.261Z,2.30
2018-05-10T08:28:12.254Z,3.00
2018-05-10T08:29:12.247Z,4.10
2018-05-10T08:30:12.398Z,4.90
2018-05-10T08:31:12.233Z,2.70
2018-05-10T08:32:12.227Z,2.60
2018-05-10T08:33:12.219Z,4.40
2018-05-10T08:34:12.213Z,3.00
2018-05-10T08:35:12.206Z,3.30
2018-05-10T08:36:12.199Z,5.20
2018-05-10T08:37:12.193Z,3.80
2018-05-10T08:38:12.187Z,5.80
2018-05-10T08:39:12.180Z,2.40
2018-05-10T08:40:12.173Z,4.60
2018-05-10T08:41:12.167Z,4.80
2018-05-10T08:42:12.161Z,5.60
2018-05-10T08:43:12.154Z,6.50
2018-05-10T08:44:12.150Z,4.40
2018-05-10T08:45:12.142Z,2.10
2018-05-10T08:46:12.136Z,3.90
2018-05-10T08:47:12.132Z,4.70
2018-05-10T08:48:12.122Z,5.40
2018-05-10T08:49:12.117Z,5.60
2018-05-10T08:50:12.113Z,2.50
2018-05-10T08:51:12.105Z,4.40
2018-05-10T08:52:12.099Z,3.30
2018-05-10T08:53:12.094Z,2.20
2018-05-10T08:54:12.089Z,2.60
2018-05-10T08:55:12.088Z,3.70
2018-05-10T08:56:12.076Z,2.00
2018-05-10T08:57:12.075Z,6.00
2018-05-10T08:58:12.066Z,3.90
2018-05-10T08:59:12.057Z,2.60
2018-05-10T09:00:12.052Z,4.60
2018-05-10T09:01:12.046Z,5.20
2018-05-10T09:02:12.192Z,3.50
2018-05-10T09:03:12.034Z,2.80
2018-05-10T09:04:12.028Z,7.30
2018-05-10T09:05:12.027Z,4.20
2018-05-10T09:06:12.017Z,9.60
2018-05-10T09:07:12.010Z,6.60
2018-05-10T09:08:12.005Z,8.80
2018-05-10T09:09:11.999Z,8.50
2018-05-10T09:10:11.993Z,0.90
2018-05-10T09:11:11.987Z,7.80
2018-05-10T09:12:11.981Z,3.30
2018-05-10T09:13:11.976Z,2.80
2018-05-10T09:14:11.970Z,3.70
2018-05-10T09:15:11.966Z,3.30
2018-05-10T09:16:11.959Z,5.50
2018-05-10T09:17:11.963Z,3.20
2018-05-10T09:18:11.948Z,3.00
2018-05-10T09:19:11.942Z,2.90
2018-05-10T09:20:11.954Z,10.00
2018-05-10T09:21:11.931Z,6.00
2018-05-10T09:22:11.927Z,2.90
2018-05-10T09:23:11.921Z,8.70
2018-05-10T09:24:11.916Z,3.70
2018-05-10T09:25:11.911Z,4.70
2018-05-10T09:26:11.907Z,17.00
2018-05-10T09:27:11.901Z,3.90
2018-05-10T09:28:11.896Z,4.70
2018-05-10T09:29:11.892Z,2.90
2018-05-10T09:30:11.888Z,2.10
2018-05-10T09:31:11.886Z,8.40
2018-05-10T09:32:11.877Z,4.10
2018-05-10T09:33:11.877Z,2.80
2018-05-10T09:34:11.868Z,5.50
2018-05-10T09:35:11.864Z,4.50
2018-05-10T09:36:11.858Z,3.80
2018-05-10T09:37:11.852Z,4.40
2018-05-10T09:38:11.847Z,7.10
2018-05-10T09:39:11.922Z,5.50
2018-05-10T09:40:11.836Z,5.20
2018-05-10T09:41:11.831Z,2.30
2018-05-10T09:42:11.826Z,5.00
2018-05-10T09:43:11.820Z,5.60
2018-05-10T09:44:11.816Z,3.40
2018-05-10T09:45:11.808Z,3.70
2018-05-10T09:46:11.813Z,6.60
2018-05-10T09:47:11.797Z,6.20
2018-05-10T09:48:11.791Z,2.30
2018-05-10T09:49:11.787Z,5.30
2018-05-10T09:50:11.780Z,9.40
2018-05-10T09:51:11.774Z,6.80
2018-05-10T09:52:11.768Z,4.40
2018-05-10T09:53:11.762Z,2.20
2018-05-10T09:54:11.757Z,3.50
2018-05-10T09:55:11.750Z,3.70
2018-05-10T09:56:11.745Z,5.00
2018-05-10T09:57:11.738Z,11.10
2018-05-10T09:58:11.739Z,6.00
2018-05-10T09:59:11.725Z,6.30
2018-05-10T10:00:11.719Z,5.50
2018-05-10T10:01:11.715Z,5.40
2018-05-10T10:02:11.707Z,3.90
2018-05-10T10:03:11.700Z,5.50
2018-05-10T10:04:11.695Z,5.30
2018-05-10T10:05:11.687Z,5.40
2018-05-10T10:06:11.743Z,4.70
2018-05-10T10:07:11.673Z,7.30
2018-05-10T10:08:11.667Z,7.20
2018-05-10T10:09:11.664Z,7.60
2018-05-10T10:10:11.654Z,6.10
2018-05-10T10:11:11.647Z,12.70
2018-05-10T10:12:11.640Z,7.70
2018-05-10T10:13:11.634Z,14.90
2018-05-10T10:14:11.631Z,4.80
2018-05-10T10:15:11.621Z,5.90
2018-05-10T10:16:11.615Z,5.10
2018-05-10T10:17:11.609Z,2.80
2018-05-10T10:18:11.602Z,5.40
2018-05-10T10:19:11.594Z,4.60
2018-05-10T10:20:11.588Z,6.80
2018-05-10T10:21:11.582Z,6.50
2018-05-10T10:22:11.579Z,7.30
2018-05-10T10:23:11.567Z,8.10
2018-05-10T10:24:11.562Z,9.40
2018-05-10T10:25:11.643Z,3.40
2018-05-10T10:26:11.548Z,7.80
2018-05-10T10:27:11.542Z,9.20
2018-05-10T10:28:11.535Z,5.40
2018-05-10T10:29:11.529Z,4.10
2018-05-10T10:30:11.522Z,3.80
2018-05-10T10:31:11.515Z,4.00
2018-05-10T10:32:11.509Z,5.50
2018-05-10T10:33:11.503Z,7.00
2018-05-10T10:34:11.496Z,4.20
2018-05-10T10:35:11.489Z,5.90
2018-05-10T10:36:11.482Z,5.00
2018-05-10T10:37:11.477Z,4.40
2018-05-10T10:38:11.562Z,3.30
2018-05-10T10:39:11.464Z,11.20
2018-05-10T10:40:11.506Z,10.10
2018-05-10T10:41:11.451Z,3.90
2018-05-10T10:42:11.445Z,5.60
2018-05-10T10:43:11.438Z,7.10
2018-05-10T10:44:11.437Z,5.50
2018-05-10T10:45:11.427Z,8.30
2018-05-10T10:46:11.422Z,9.90
2018-05-10T10:47:11.415Z,6.50
2018-05-10T10:48:11.413Z,6.40
2018-05-10T10:49:11.405Z,10.30
2018-05-10T10:50:11.400Z,8.00
2018-05-10T10:51:11.394Z,5.00
2018-05-10T10:52:11.391Z,6.50
2018-05-10T10:53:11.389Z,6.70
2018-05-10T10:54:11.383Z,6.10
2018-05-10T10:55:11.378Z,5.30
2018-05-10T10:56:11.375Z,3.90
2018-05-10T10:57:11.372Z,4.30
2018-05-10T10:58:11.369Z,6.90
2018-05-10T10:59:11.364Z,6.10
2018-05-10T11:00:11.362Z,7.30
2018-05-10T11:01:11.359Z,7.90
2018-05-10T11:02:11.366Z,9.30
2018-05-10T11:03:11.351Z,6.30
2018-05-10T11:04:11.350Z,4.70
2018-05-10T11:05:11.344Z,5.50
2018-05-10T11:06:11.341Z,6.40
2018-05-10T11:07:11.337Z,8.60
2018-05-10T11:08:11.333Z,6.00
2018-05-10T11:09:11.397Z,5.50
2018-05-10T11:10:11.326Z,8.60
2018-05-10T11:11:11.321Z,6.30
2018-05-10T11:12:11.316Z,13.00
2018-05-10T11:13:11.313Z,5.20
2018-05-10T11:14:11.309Z,9.30
2018-05-10T11:15:11.304Z,9.20
2018-05-10T11:16:11.300Z,6.80
2018-05-10T11:17:11.296Z,6.60
2018-05-10T11:18:11.291Z,5.10
2018-05-10T11:19:11.286Z,8.60
2018-05-10T11:20:11.282Z,9.60
2018-05-10T11:21:11.278Z,11.30
2018-05-10T11:22:11.275Z,8.30
2018-05-10T11:23:11.269Z,8.90
2018-05-10T11:24:11.265Z,7.00
2018-05-10T11:25:11.261Z,12.10
2018-05-10T11:26:11.257Z,7.90
2018-05-10T11:27:11.252Z,9.30
2018-05-10T11:28:11.247Z,3.90
2018-05-10T11:29:11.244Z,11.30
2018-05-10T11:30:11.241Z,11.00
2018-05-10T11:31:11.233Z,6.10
2018-05-10T11:32:11.231Z,7.20
2018-05-10T11:33:11.314Z,6.30
2018-05-10T11:34:11.221Z,11.80
2018-05-10T11:35:11.215Z,9.50
2018-05-10T11:36:11.244Z,8.20
2018-05-10T11:37:11.207Z,8.10
2018-05-10T11:38:11.203Z,9.90
2018-05-10T11:39:11.240Z,5.70
2018-05-10T11:40:11.194Z,5.30
2018-05-10T11:41:11.192Z,5.10
2018-05-10T11:42:11.189Z,10.20
2018-05-10T11:43:11.183Z,4.20
2018-05-10T11:44:11.180Z,6.70
2018-05-10T11:45:11.177Z,9.00
2018-05-10T11:46:11.175Z,8.10
2018-05-10T11:47:11.174Z,8.10
2018-05-10T11:48:11.167Z,12.80
2018-05-10T11:49:11.167Z,7.40
2018-05-10T11:50:11.160Z,5.70
2018-05-10T11:51:11.157Z,6.60
2018-05-10T11:52:11.152Z,8.20
2018-05-10T11:53:11.152Z,6.90
2018-05-10T11:54:11.145Z,7.90
2018-05-10T11:55:11.143Z,7.30
2018-05-10T11:56:11.137Z,7.10
2018-05-10T11:57:11.135Z,7.10
2018-05-10T11:58:11.130Z,8.30
2018-05-10T11:59:11.125Z,5.50
2018-05-10T12:00:11.121Z,7.90
2018-05-10T12:01:11.117Z,5.00
2018-05-10T12:02:11.113Z,8.70
2018-05-10T12:03:11.108Z,8.50
2018-05-10T12:04:11.105Z,5.60
2018-05-10T12:05:11.101Z,4.70
2018-05-10T12:06:11.135Z,6.80
2018-05-10T12:07:11.091Z,10.40
2018-05-10T12:08:11.087Z,6.90
2018-05-10T12:09:11.083Z,7.20
2018-05-10T12:12:15.224Z,6.00
2018-05-10T12:13:15.222Z,9.60
2018-05-10T12:14:15.214Z,3.70
2018-05-10T12:15:15.210Z,7.70
2018-05-10T12:16:15.205Z,6.50
2018-05-10T12:17:15.199Z,7.00
2018-05-10T12:18:15.195Z,6.20
2018-05-10T12:19:15.235Z,11.30
2018-05-10T12:20:15.187Z,8.10
2018-05-10T12:21:15.182Z,5.60
2018-05-10T12:22:15.178Z,6.90
2018-05-10T12:23:15.174Z,12.30
2018-05-10T12:24:15.171Z,3.80
2018-05-10T12:25:15.172Z,6.70
2018-05-10T12:26:15.164Z,8.10
2018-05-10T12:27:15.168Z,7.70
2018-05-10T12:28:15.163Z,6.50
2018-05-10T12:29:15.156Z,10.00
2018-05-10T12:30:15.154Z,4.80
2018-05-10T12:31:15.152Z,5.90
2018-05-10T12:32:15.155Z,9.30
2018-05-10T12:33:15.148Z,4.80
2018-05-10T12:34:15.147Z,6.30
2018-05-10T12:35:15.148Z,6.50
2018-05-10T12:36:15.147Z,4.60
2018-05-10T12:37:15.146Z,5.10
2018-05-10T12:38:15.147Z,5.40
2018-05-10T12:39:15.152Z,10.00
2018-05-10T12:40:15.148Z,6.40
2018-05-10T12:41:15.148Z,4.60
2018-05-10T12:42:15.148Z,4.60
2018-05-10T12:43:15.149Z,6.00
2018-05-10T12:44:15.150Z,7.40
2018-05-10T12:45:15.149Z,8.50
2018-05-10T12:46:15.150Z,6.80
2018-05-10T12:47:15.156Z,4.60
2018-05-10T12:48:15.150Z,6.60
2018-05-10T12:49:15.152Z,5.20
2018-05-10T12:50:15.153Z,6.20
2018-05-10T12:51:15.148Z,7.80
2018-05-10T12:52:15.148Z,12.20
2018-05-10T12:53:15.147Z,3.90
2018-05-10T12:54:15.148Z,6.10
2018-05-10T12:55:15.145Z,4.20
2018-05-10T12:56:15.225Z,7.10
2018-05-10T12:57:15.143Z,9.00
2018-05-10T12:58:15.142Z,7.10
2018-05-10T12:59:15.141Z,5.80
2018-05-10T13:00:15.143Z,4.00
2018-05-10T13:01:15.138Z,9.20
2018-05-10T13:02:15.141Z,5.90
2018-05-10T13:03:15.137Z,5.00
2018-05-10T13:04:15.140Z,5.20
2018-05-10T13:05:15.136Z,9.10
2018-05-10T13:06:15.137Z,3.20
2018-05-10T13:07:15.137Z,5.80
2018-05-10T13:08:15.140Z,4.50
2018-05-10T13:09:15.140Z,7.00